Time;durP1;ratioP1;P1;durP2;ratioP2;P2;SDS_P1;SDS_P2;PMS_P1;PMS_P2;Temp;Humidity;BMP_temperature;BMP_pressure;BME280_temperature;BME280_humidity;BME280_pressure;Samples;Min_cycle;Max_cycle;Signal;HPM_P1;HPM_P2
2024/03/16 00:01:51;;;;;;;7.03;3.37;;;11.30;99.90;;;;;;4176449;28;20303;-80
2024/03/16 00:03:53;;;;;;;3.90;3.10;;;11.30;99.90;;;;;;4153585;28;20282;-80
2024/03/16 00:05:56;;;;;;;3.13;2.77;;;11.30;99.90;;;;;;4139055;28;20233;-80
2024/03/16 00:07:58;;;;;;;6.97;3.13;;;11.30;99.90;;;;;;4160259;28;20282;-80
2024/03/16 00:10:00;;;;;;;7.00;3.03;;;11.30;99.90;;;;;;4161233;28;20726;-80
2024/03/16 00:12:02;;;;;;;7.13;3.10;;;11.30;99.90;;;;;;4144387;28;20203;-81
2024/03/16 00:14:04;;;;;;;4.67;3.27;;;11.30;99.90;;;;;;4177548;28;20196;-81
2024/03/16 00:16:06;;;;;;;4.77;3.23;;;11.30;99.90;;;;;;4164541;28;20207;-81
2024/03/16 00:18:11;;;;;;;5.53;2.80;;;11.30;99.90;;;;;;4163037;28;20228;-82
2024/03/16 00:20:17;;;;;;;4.70;2.63;;;11.30;99.90;;;;;;4163072;28;20222;-81
2024/03/16 00:22:18;;;;;;;3.90;2.67;;;11.30;99.90;;;;;;4160314;28;20207;-80
2024/03/16 00:24:20;;;;;;;3.90;2.97;;;11.30;99.90;;;;;;4173151;28;20596;-82
2024/03/16 00:26:23;;;;;;;5.53;2.80;;;11.30;99.90;;;;;;4147757;28;20213;-80
2024/03/16 00:28:25;;;;;;;4.03;2.63;;;11.30;99.90;;;;;;4174933;28;20222;-80
2024/03/16 00:30:27;;;;;;;4.57;2.53;;;11.30;99.90;;;;;;4161212;28;20302;-82
2024/03/16 00:32:29;;;;;;;4.13;2.80;;;11.30;99.90;;;;;;4158786;28;20212;-80
2024/03/16 00:34:31;;;;;;;5.17;2.90;;;11.30;99.90;;;;;;4164202;28;20282;-81
2024/03/16 00:36:32;;;;;;;4.53;2.57;;;11.30;99.90;;;;;;4172627;28;20206;-81
2024/03/16 00:38:34;;;;;;;4.93;2.80;;;11.30;99.90;;;;;;4159775;28;20228;-80
2024/03/16 00:40:35;;;;;;;3.97;2.53;;;11.60;99.90;;;;;;4160134;28;20222;-82
2024/03/16 00:42:37;;;;;;;4.67;2.97;;;11.20;99.90;;;;;;4192623;28;20294;-80
2024/03/16 00:44:40;;;;;;;4.07;2.70;;;11.20;99.90;;;;;;4142078;28;20797;-81
2024/03/16 00:46:42;;;;;;;5.60;2.43;;;11.10;99.90;;;;;;4184617;28;20241;-80
2024/03/16 00:48:44;;;;;;;4.27;2.57;;;11.10;99.90;;;;;;4160313;28;20258;-80
2024/03/16 00:50:46;;;;;;;4.67;2.60;;;11.20;99.90;;;;;;4145658;28;20215;-80
2024/03/16 00:52:47;;;;;;;5.97;2.63;;;11.10;99.90;;;;;;4155753;28;20221;-80
2024/03/16 00:54:49;;;;;;;3.50;2.67;;;11.10;99.90;;;;;;4172347;28;20299;-80
2024/03/16 00:56:52;;;;;;;4.07;2.40;;;11.00;99.90;;;;;;4149025;28;20696;-80
2024/03/16 00:58:53;;;;;;;7.90;2.23;;;11.10;99.90;;;;;;4166127;28;20219;-81
2024/03/16 01:00:55;;;;;;;4.00;2.90;;;11.00;99.90;;;;;;4174624;28;20206;-81
2024/03/16 01:02:57;;;;;;;5.57;2.60;;;11.00;99.90;;;;;;4158897;28;20624;-80
2024/03/16 01:04:58;;;;;;;3.97;2.30;;;10.80;99.90;;;;;;4161246;28;20265;-80
2024/03/16 01:07:01;;;;;;;6.13;2.50;;;11.00;99.90;;;;;;4147449;28;20208;-80
2024/03/16 01:09:03;;;;;;;4.40;2.50;;;11.00;99.90;;;;;;4151396;28;20242;-80
2024/03/16 01:11:05;;;;;;;4.47;2.70;;;11.10;99.90;;;;;;4149411;28;20210;-80
2024/03/16 01:13:07;;;;;;;3.80;2.73;;;11.00;99.90;;;;;;4163563;28;20612;-79
2024/03/16 01:15:10;;;;;;;5.73;2.50;;;11.00;99.90;;;;;;4179374;28;20198;-80
2024/03/16 01:17:12;;;;;;;6.43;2.53;;;11.00;99.90;;;;;;4143951;28;20903;-80
2024/03/16 01:19:14;;;;;;;3.47;2.60;;;10.90;99.90;;;;;;4162747;28;20206;-80
2024/03/16 01:21:16;;;;;;;6.50;2.53;;;11.00;99.90;;;;;;4171450;28;20215;-81
2024/03/16 01:23:17;;;;;;;4.33;2.70;;;11.00;99.90;;;;;;4169663;28;20210;-80
2024/03/16 01:25:19;;;;;;;3.27;2.47;;;11.00;99.90;;;;;;4179141;28;20778;-80
2024/03/16 01:27:21;;;;;;;4.70;2.50;;;10.90;99.90;;;;;;4176450;28;20320;-80
2024/03/16 01:29:23;;;;;;;4.23;2.40;;;10.90;99.90;;;;;;4177001;28;20221;-80
2024/03/16 01:31:29;;;;;;;4.87;2.23;;;10.90;99.90;;;;;;4178793;28;20655;-80
2024/03/16 01:33:31;;;;;;;5.00;2.60;;;10.90;99.90;;;;;;4148216;28;20204;-81
2024/03/16 01:35:32;;;;;;;4.10;2.13;;;10.90;99.90;;;;;;4164268;28;20200;-82
2024/03/16 01:37:34;;;;;;;3.90;2.40;;;10.90;99.90;;;;;;4184554;28;20275;-81
2024/03/16 01:39:36;;;;;;;3.00;2.20;;;10.90;99.90;;;;;;4175508;28;20668;-80
2024/03/16 01:41:40;;;;;;;3.33;2.33;;;11.10;99.90;;;;;;4163692;28;20211;-80
2024/03/16 01:43:43;;;;;;;4.53;2.30;;;10.90;99.90;;;;;;4161763;28;20703;-80
2024/03/16 01:45:44;;;;;;;4.90;2.30;;;10.90;99.90;;;;;;4188641;28;20237;-80
2024/03/16 01:47:47;;;;;;;4.83;2.40;;;10.90;99.90;;;;;;4178516;28;20787;-80
2024/03/16 01:49:49;;;;;;;3.90;2.30;;;10.80;99.90;;;;;;4162324;28;20211;-81
2024/03/16 01:51:51;;;;;;;3.67;2.30;;;10.90;99.90;;;;;;4162003;28;20207;-80
2024/03/16 01:53:52;;;;;;;4.30;2.60;;;10.90;99.90;;;;;;4148439;28;20207;-80
2024/03/16 01:55:54;;;;;;;2.93;2.30;;;10.90;99.90;;;;;;4161514;28;20231;-80
2024/03/16 01:57:55;;;;;;;7.37;2.43;;;10.90;99.90;;;;;;4143942;28;20258;-80
2024/03/16 01:59:57;;;;;;;4.33;2.20;;;10.90;99.90;;;;;;4157747;28;20703;-79
2024/03/16 02:02:02;;;;;;;5.80;2.60;;;10.90;99.90;;;;;;4161782;28;20935;-79
2024/03/16 02:04:04;;;;;;;5.10;2.30;;;10.90;99.90;;;;;;4181779;28;20226;-80
2024/03/16 02:06:06;;;;;;;5.83;2.33;;;10.90;99.90;;;;;;4180875;28;20221;-81
2024/03/16 02:08:07;;;;;;;6.07;2.93;;;10.90;99.90;;;;;;4166530;28;20272;-80
2024/03/16 02:10:09;;;;;;;5.93;2.40;;;10.90;99.90;;;;;;4159841;28;20601;-79
2024/03/16 02:12:11;;;;;;;3.47;2.37;;;10.80;99.90;;;;;;4180449;28;20293;-79
2024/03/16 02:14:13;;;;;;;4.73;2.27;;;10.90;99.90;;;;;;4162011;28;20207;-79
2024/03/16 02:16:15;;;;;;;3.30;2.20;;;11.00;99.90;;;;;;4166132;28;20601;-79
2024/03/16 02:18:16;;;;;;;4.53;2.20;;;10.90;99.90;;;;;;4177672;28;20231;-79
2024/03/16 02:20:19;;;;;;;5.10;2.67;;;10.80;99.90;;;;;;4168134;28;20229;-80
2024/03/16 02:22:20;;;;;;;3.93;2.50;;;10.80;99.90;;;;;;4179371;28;20255;-79
2024/03/16 02:24:23;;;;;;;4.70;2.20;;;10.80;99.90;;;;;;4164002;28;20237;-81
2024/03/16 02:26:24;;;;;;;3.53;2.30;;;10.80;99.90;;;;;;4175825;28;20206;-79
2024/03/16 02:28:26;;;;;;;4.10;2.20;;;10.80;99.90;;;;;;4165439;28;20242;-81
2024/03/16 02:30:28;;;;;;;4.33;2.00;;;10.90;99.90;;;;;;4166127;28;20265;-83
2024/03/16 02:32:31;;;;;;;4.37;2.03;;;10.80;99.90;;;;;;4203168;28;20210;-80
2024/03/16 02:34:35;;;;;;;3.50;1.60;;;10.80;99.90;;;;;;4179205;28;20201;-83
2024/03/16 02:36:38;;;;;;;2.30;1.83;;;10.80;99.90;;;;;;4169502;28;20215;-79
2024/03/16 02:38:40;;;;;;;4.70;1.50;;;10.80;99.90;;;;;;4166517;28;20294;-80
2024/03/16 02:40:43;;;;;;;2.37;1.63;;;10.80;99.90;;;;;;4159416;28;20208;-82
2024/03/16 02:42:45;;;;;;;2.33;1.50;;;11.10;99.90;;;;;;4161475;28;20258;-79
2024/03/16 02:44:47;;;;;;;2.60;1.20;;;10.80;99.90;;;;;;4160533;28;20235;-80
2024/03/16 02:46:48;;;;;;;1.77;1.30;;;10.80;99.90;;;;;;4164128;28;20694;-80
2024/03/16 02:48:50;;;;;;;2.23;1.30;;;10.80;99.90;;;;;;4163156;28;20238;-79
2024/03/16 02:50:52;;;;;;;1.77;1.27;;;10.90;99.90;;;;;;4171337;28;20292;-79
2024/03/16 02:52:55;;;;;;;2.60;1.40;;;10.80;99.90;;;;;;4179389;28;20278;-79
2024/03/16 02:54:57;;;;;;;2.93;1.37;;;10.80;99.90;;;;;;4178693;28;20687;-82
2024/03/16 02:56:59;;;;;;;1.97;1.20;;;10.80;99.90;;;;;;4173837;28;20232;-79
2024/03/16 02:59:01;;;;;;;2.43;1.30;;;10.80;99.90;;;;;;4159401;28;20210;-81
2024/03/16 03:01:02;;;;;;;1.77;1.20;;;10.80;99.90;;;;;;4156509;28;20852;-80
2024/03/16 03:03:06;;;;;;;2.30;1.20;;;10.80;99.90;;;;;;4156157;28;20658;-82
2024/03/16 03:05:10;;;;;;;3.10;1.13;;;10.80;99.90;;;;;;4176934;28;20206;-79
2024/03/16 03:07:13;;;;;;;2.43;1.20;;;10.80;99.90;;;;;;4163412;28;20214;-80
2024/03/16 03:09:15;;;;;;;2.47;0.97;;;10.80;99.90;;;;;;4174871;28;20741;-81
2024/03/16 03:11:16;;;;;;;1.27;0.80;;;10.80;99.90;;;;;;4174423;28;20215;-80
2024/03/16 03:13:18;;;;;;;2.57;1.10;;;10.80;99.90;;;;;;4159242;28;20286;-80
2024/03/16 03:15:21;;;;;;;2.13;0.90;;;10.80;99.90;;;;;;4159478;28;20211;-81
2024/03/16 03:17:23;;;;;;;1.47;0.70;;;10.80;99.90;;;;;;4175264;28;20964;-80
2024/03/16 03:19:25;;;;;;;1.33;0.90;;;11.20;99.90;;;;;;4162408;28;20291;-80
2024/03/16 03:21:29;;;;;;;1.80;0.90;;;10.80;99.90;;;;;;4162706;28;20353;-80
2024/03/16 03:23:30;;;;;;;2.80;1.20;;;10.70;99.90;;;;;;4160693;28;20213;-80
2024/03/16 03:25:32;;;;;;;1.40;0.60;;;10.70;99.90;;;;;;4145817;28;20235;-79
2024/03/16 03:27:34;;;;;;;3.87;1.07;;;10.70;99.90;;;;;;4179132;28;20585;-80
2024/03/16 03:29:36;;;;;;;1.30;0.60;;;10.70;99.90;;;;;;4162921;28;20230;-80
2024/03/16 03:31:38;;;;;;;1.47;0.90;;;10.70;99.90;;;;;;4156084;28;20246;-80
2024/03/16 03:33:40;;;;;;;0.93;0.87;;;10.70;99.90;;;;;;4170514;28;20317;-81
2024/03/16 03:35:41;;;;;;;0.87;0.73;;;10.60;99.90;;;;;;4156692;28;20195;-80
2024/03/16 03:37:43;;;;;;;1.13;0.90;;;10.60;99.90;;;;;;4157916;28;20664;-80
2024/03/16 03:39:48;;;;;;;0.70;0.70;;;10.50;99.90;;;;;;4156693;28;20231;-79
2024/03/16 03:41:50;;;;;;;0.77;0.70;;;10.50;99.90;;;;;;4162883;28;20214;-81
2024/03/16 03:43:59;;;;;;;1.10;0.73;;;10.50;99.90;;;;;;4180613;28;20775;-82
2024/03/16 03:46:01;;;;;;;1.97;0.80;;;10.40;99.90;;;;;;4177646;28;20222;-82
2024/03/16 03:48:14;;;;;;;0.90;0.70;;;10.40;99.90;;;;;;4153097;28;20707;-84
2024/03/16 03:50:26;;;;;;;1.17;0.60;;;10.40;99.90;;;;;;4164311;28;20214;-81
2024/03/16 03:52:28;;;;;;;2.47;1.00;;;10.30;99.90;;;;;;4165757;28;20206;-82
2024/03/16 03:54:30;;;;;;;1.57;0.73;;;10.30;99.90;;;;;;4173008;28;20205;-83
2024/03/16 03:56:32;;;;;;;0.83;0.60;;;10.20;99.90;;;;;;4168491;28;20210;-82
2024/03/16 03:58:34;;;;;;;0.80;0.60;;;10.20;99.90;;;;;;4184510;28;20214;-82
2024/03/16 04:00:36;;;;;;;1.50;0.80;;;10.20;99.90;;;;;;4183053;28;20262;-81
2024/03/16 04:02:38;;;;;;;2.17;0.87;;;10.10;99.90;;;;;;4151786;28;20270;-82
2024/03/16 04:04:43;;;;;;;1.17;0.80;;;10.10;99.90;;;;;;4170771;28;20789;-81
2024/03/16 04:06:46;;;;;;;2.10;0.70;;;10.10;99.90;;;;;;4165760;28;20243;-83
2024/03/16 04:08:48;;;;;;;2.20;0.70;;;10.00;99.90;;;;;;4171083;28;20257;-82
2024/03/16 04:10:50;;;;;;;1.57;0.77;;;10.00;99.90;;;;;;4161980;28;20233;-82
2024/03/16 04:12:51;;;;;;;1.00;0.70;;;9.90;99.90;;;;;;4189211;28;20229;-81
2024/03/16 04:14:53;;;;;;;1.33;0.63;;;9.90;99.90;;;;;;4158470;28;20263;-82
2024/03/16 04:16:56;;;;;;;1.50;0.77;;;9.90;99.90;;;;;;4170314;28;20708;-82
2024/03/16 04:18:58;;;;;;;0.87;0.67;;;9.90;99.90;;;;;;4171446;28;20201;-82
2024/03/16 04:21:02;;;;;;;1.33;0.80;;;9.90;99.90;;;;;;4167332;28;20278;-81
2024/03/16 04:23:04;;;;;;;0.90;0.63;;;9.80;99.90;;;;;;4201861;28;20240;-83
2024/03/16 04:25:08;;;;;;;1.90;0.80;;;9.70;99.90;;;;;;4169369;28;20233;-85
2024/03/16 04:27:10;;;;;;;1.27;0.70;;;9.70;99.90;;;;;;4187861;28;20221;-82
2024/03/16 04:29:12;;;;;;;0.93;0.70;;;9.70;99.90;;;;;;4164635;28;20246;-83
2024/03/16 04:31:14;;;;;;;1.00;0.60;;;9.70;99.90;;;;;;4166365;28;20304;-83
2024/03/16 04:33:16;;;;;;;1.73;0.83;;;9.70;99.90;;;;;;4181313;28;20230;-83
2024/03/16 04:35:17;;;;;;;1.60;0.80;;;10.00;99.90;;;;;;4170056;28;20237;-82
2024/03/16 04:37:20;;;;;;;1.97;1.00;;;9.90;99.90;;;;;;4158336;28;20227;-81
2024/03/16 04:39:22;;;;;;;1.77;0.80;;;9.60;99.90;;;;;;4170668;28;20211;-81
2024/03/16 04:41:24;;;;;;;1.30;0.80;;;9.60;99.90;;;;;;4156156;28;20466;-82
2024/03/16 04:43:26;;;;;;;0.60;0.50;;;9.50;99.90;;;;;;4183904;28;20257;-83
2024/03/16 04:45:28;;;;;;;2.27;0.70;;;9.50;99.90;;;;;;4165638;28;20233;-82
2024/03/16 04:47:29;;;;;;;0.60;0.50;;;9.50;99.90;;;;;;4171691;28;20348;-83
2024/03/16 04:49:31;;;;;;;0.77;0.57;;;9.50;99.90;;;;;;4172113;28;20264;-82
2024/03/16 04:51:33;;;;;;;2.10;0.70;;;9.50;99.90;;;;;;4183506;28;20209;-84
2024/03/16 04:53:35;;;;;;;1.13;0.50;;;9.40;99.90;;;;;;4183043;28;20224;-84
2024/03/16 04:55:36;;;;;;;0.70;0.50;;;9.40;99.90;;;;;;4184613;28;20225;-81
2024/03/16 04:57:38;;;;;;;0.83;0.50;;;9.40;99.90;;;;;;4167810;28;20710;-82
2024/03/16 04:59:39;;;;;;;2.27;0.43;;;9.40;99.90;;;;;;4174661;28;20255;-85
2024/03/16 05:01:42;;;;;;;1.17;0.50;;;9.40;99.90;;;;;;4193606;28;20202;-85
2024/03/16 05:03:44;;;;;;;0.57;0.57;;;9.40;99.90;;;;;;4186045;28;20678;-81
2024/03/16 05:05:46;;;;;;;0.40;0.40;;;9.40;99.90;;;;;;4168288;28;20227;-82
2024/03/16 05:07:48;;;;;;;1.00;0.50;;;9.40;99.90;;;;;;4169983;28;20237;-84
2024/03/16 05:09:49;;;;;;;0.90;0.60;;;9.40;99.90;;;;;;4199707;28;20231;-83
2024/03/16 05:11:54;;;;;;;0.83;0.50;;;9.40;99.90;;;;;;4183725;28;20267;-84
2024/03/16 05:13:57;;;;;;;0.97;0.50;;;9.40;99.90;;;;;;4165984;28;20210;-82
2024/03/16 05:16:05;;;;;;;1.60;0.50;;;9.40;99.90;;;;;;4168130;28;20578;-82
2024/03/16 05:18:08;;;;;;;1.03;0.40;;;9.40;99.90;;;;;;4164838;28;20229;-83
2024/03/16 05:20:10;;;;;;;1.33;0.70;;;9.40;99.90;;;;;;4158281;28;20206;-82
2024/03/16 05:22:12;;;;;;;1.30;0.60;;;9.40;99.90;;;;;;4165011;28;20210;-81
2024/03/16 05:24:14;;;;;;;1.57;0.60;;;9.40;99.90;;;;;;4182857;28;20213;-82
2024/03/16 05:26:16;;;;;;;0.63;0.60;;;9.40;99.90;;;;;;4164154;28;20230;-82
2024/03/16 05:28:19;;;;;;;7.83;3.70;;;9.40;99.90;;;;;;4162994;28;20318;-82
2024/03/16 05:30:21;;;;;;;9.33;3.97;;;9.40;99.90;;;;;;4179774;28;20205;-83
2024/03/16 05:32:24;;;;;;;5.03;1.60;;;9.80;99.90;;;;;;4165292;28;20272;-83
2024/03/16 05:34:26;;;;;;;1.67;0.80;;;9.50;99.90;;;;;;4151303;28;20246;-83
2024/03/16 05:36:28;;;;;;;0.57;0.57;;;9.50;99.90;;;;;;4169432;28;20207;-82
2024/03/16 05:38:30;;;;;;;0.60;0.60;;;9.80;99.90;;;;;;4182576;28;20228;-82
2024/03/16 05:40:32;;;;;;;0.97;0.60;;;9.50;99.90;;;;;;4162630;28;20210;-81
2024/03/16 05:42:37;;;;;;;0.77;0.60;;;9.50;99.90;;;;;;4185425;28;20202;-82
2024/03/16 05:44:38;;;;;;;1.23;0.50;;;9.60;99.90;;;;;;4165663;28;20279;-81
2024/03/16 05:46:40;;;;;;;0.90;0.60;;;9.60;99.90;;;;;;4164066;28;20247;-84
2024/03/16 05:48:42;;;;;;;1.37;0.70;;;9.60;99.90;;;;;;4180108;28;20721;-82
2024/03/16 05:50:44;;;;;;;2.07;0.70;;;9.60;99.90;;;;;;4160900;28;20273;-82
2024/03/16 05:52:46;;;;;;;3.07;1.20;;;9.60;99.90;;;;;;4164726;28;20207;-82
2024/03/16 05:54:49;;;;;;;4.30;1.00;;;9.60;99.90;;;;;;4183150;28;20377;-83
2024/03/16 05:56:54;;;;;;;1.07;0.80;;;9.70;99.90;;;;;;4175743;28;20222;-82
2024/03/16 05:58:57;;;;;;;1.10;0.70;;;9.70;99.90;;;;;;4162986;28;20729;-81
2024/03/16 06:01:00;;;;;;;1.03;0.53;;;9.70;99.90;;;;;;4145137;28;20235;-81
2024/03/16 06:03:03;;;;;;;1.03;0.67;;;9.80;99.90;;;;;;4176688;28;20642;-81
2024/03/16 06:05:05;;;;;;;1.20;0.67;;;9.80;99.90;;;;;;4177213;28;20214;-82
2024/03/16 06:07:07;;;;;;;1.97;0.60;;;9.90;99.90;;;;;;4160586;28;20305;-82
2024/03/16 06:09:08;;;;;;;0.87;0.70;;;9.90;99.90;;;;;;4183951;28;20260;-81
2024/03/16 06:11:10;;;;;;;1.00;0.70;;;9.90;99.90;;;;;;4181590;28;20214;-80
2024/03/16 06:13:13;;;;;;;0.60;0.50;;;10.00;99.90;;;;;;4165993;28;20209;-81
2024/03/16 06:15:14;;;;;;;1.03;0.50;;;10.00;99.90;;;;;;4161511;28;20199;-82
2024/03/16 06:17:16;;;;;;;1.77;0.60;;;10.00;99.90;;;;;;4170549;28;20258;-81
2024/03/16 06:19:18;;;;;;;0.90;0.70;;;10.10;99.90;;;;;;4168427;28;20199;-82
2024/03/16 06:21:20;;;;;;;1.43;0.70;;;10.10;99.90;;;;;;4170822;28;20218;-82
2024/03/16 06:23:21;;;;;;;1.40;0.70;;;10.40;99.90;;;;;;4168463;28;20214;-82
2024/03/16 06:25:24;;;;;;;1.63;0.90;;;10.20;99.90;;;;;;4165023;28;20210;-82
2024/03/16 06:27:26;;;;;;;0.90;0.70;;;10.10;99.90;;;;;;4167716;28;20239;-82
2024/03/16 06:29:30;;;;;;;1.93;0.70;;;10.20;99.90;;;;;;4171261;28;20234;-81
2024/03/16 06:31:32;;;;;;;0.70;0.70;;;10.20;99.90;;;;;;4167205;28;20221;-82
2024/03/16 06:33:34;;;;;;;1.20;0.80;;;10.20;99.90;;;;;;4145386;28;20215;-81
2024/03/16 06:35:37;;;;;;;2.30;0.70;;;10.30;99.90;;;;;;4159119;28;20273;-81
2024/03/16 06:37:40;;;;;;;1.20;0.80;;;10.30;99.90;;;;;;4180538;28;20775;-81
2024/03/16 06:39:42;;;;;;;1.17;0.70;;;10.30;99.90;;;;;;4176878;28;20230;-82
2024/03/16 06:41:44;;;;;;;0.97;0.70;;;10.40;99.90;;;;;;4164013;28;20243;-81
2024/03/16 06:43:47;;;;;;;2.30;0.73;;;10.40;99.90;;;;;;4186359;28;20217;-81
2024/03/16 06:45:50;;;;;;;2.93;1.30;;;10.50;99.90;;;;;;4163522;28;20920;-81
2024/03/16 06:47:52;;;;;;;2.83;1.40;;;10.50;99.90;;;;;;4164085;28;20707;-82
2024/03/16 06:49:53;;;;;;;2.77;1.20;;;10.50;99.90;;;;;;4160200;28;20226;-82
2024/03/16 06:51:55;;;;;;;1.47;1.10;;;10.60;99.90;;;;;;4177517;28;20685;-81
2024/03/16 06:53:57;;;;;;;2.60;1.17;;;10.60;99.90;;;;;;4180094;28;20203;-81
2024/03/16 06:55:59;;;;;;;1.67;0.93;;;10.60;99.90;;;;;;4163132;28;20218;-80
2024/03/16 06:58:04;;;;;;;2.50;1.50;;;10.60;99.90;;;;;;4163409;28;20215;-81
2024/03/16 07:00:09;;;;;;;2.10;1.10;;;10.70;99.90;;;;;;4165179;28;20213;-81
2024/03/16 07:02:11;;;;;;;3.33;1.80;;;10.70;99.90;;;;;;4162018;28;20204;-81
2024/03/16 07:04:15;;;;;;;3.23;1.23;;;10.70;99.90;;;;;;4175840;28;20871;-80
2024/03/16 07:06:17;;;;;;;2.00;1.30;;;10.70;99.90;;;;;;4149995;28;20226;-80
2024/03/16 07:08:19;;;;;;;4.93;1.40;;;10.70;99.90;;;;;;4166103;28;20640;-80
2024/03/16 07:10:21;;;;;;;4.97;1.23;;;10.70;99.90;;;;;;4175111;28;20793;-80
2024/03/16 07:12:23;;;;;;;1.20;1.10;;;10.80;99.90;;;;;;4158685;28;20203;-81
2024/03/16 07:14:26;;;;;;;4.13;1.60;;;10.80;99.90;;;;;;4174272;28;20234;-81
2024/03/16 07:16:28;;;;;;;3.17;1.73;;;10.90;99.90;;;;;;4165312;28;20679;-83
2024/03/16 07:18:30;;;;;;;5.23;1.67;;;10.90;99.90;;;;;;4200503;28;20291;-82
2024/03/16 07:20:32;;;;;;;3.13;1.17;;;10.90;99.90;;;;;;4166439;28;20274;-83
2024/03/16 07:22:34;;;;;;;3.47;1.50;;;10.90;99.90;;;;;;4184715;28;20203;-82
2024/03/16 07:24:36;;;;;;;2.23;1.30;;;10.90;99.90;;;;;;4171024;28;20203;-81
2024/03/16 07:26:38;;;;;;;2.50;1.47;;;11.00;99.90;;;;;;4148746;28;20350;-81
2024/03/16 07:28:40;;;;;;;3.23;1.60;;;10.90;99.90;;;;;;4173532;28;21123;-77
2024/03/16 07:30:41;;;;;;;2.20;1.40;;;11.00;99.90;;;;;;4158899;28;20210;-80
2024/03/16 07:32:43;;;;;;;4.47;2.57;;;11.00;99.90;;;;;;4163738;28;20207;-80
2024/03/16 07:34:45;;;;;;;4.07;1.67;;;11.00;99.90;;;;;;4164187;28;20203;-80
2024/03/16 07:36:48;;;;;;;2.13;1.40;;;11.10;99.90;;;;;;4167608;28;20207;-82
2024/03/16 07:38:54;;;;;;;3.37;1.37;;;11.10;99.90;;;;;;4170529;28;20231;-80
2024/03/16 07:40:56;;;;;;;8.13;1.63;;;11.10;99.90;;;;;;4155628;28;20649;-83
2024/03/16 07:42:58;;;;;;;3.13;1.43;;;11.20;99.90;;;;;;4186111;28;20203;-80
2024/03/16 07:45:01;;;;;;;2.73;1.40;;;11.20;99.90;;;;;;4185838;28;20240;-82
2024/03/16 07:47:03;;;;;;;3.47;1.40;;;11.30;99.90;;;;;;4186456;28;20223;-81
2024/03/16 07:49:05;;;;;;;3.87;1.40;;;11.30;99.90;;;;;;4187197;28;20207;-83
2024/03/16 07:51:07;;;;;;;5.53;1.40;;;11.40;99.90;;;;;;4166839;28;20271;-81
2024/03/16 07:53:10;;;;;;;3.00;1.33;;;11.40;99.90;;;;;;4165166;28;20241;-81
2024/03/16 07:55:12;;;;;;;3.80;1.20;;;11.40;99.90;;;;;;4186432;28;20214;-81
2024/03/16 07:57:14;;;;;;;2.23;1.40;;;11.40;99.90;;;;;;4168124;28;20212;-82
2024/03/16 07:59:16;;;;;;;3.30;1.70;;;11.40;99.90;;;;;;4194950;28;20211;-84
2024/03/16 08:01:19;;;;;;;3.50;1.20;;;11.40;99.90;;;;;;4173817;28;20204;-82
2024/03/16 08:03:23;;;;;;;3.40;1.50;;;11.40;99.90;;;;;;4168817;28;20228;-81
2024/03/16 08:05:25;;;;;;;3.47;1.30;;;11.40;99.90;;;;;;4183819;28;20198;-82
2024/03/16 08:07:27;;;;;;;1.40;1.13;;;11.40;99.90;;;;;;4166956;28;20306;-81
2024/03/16 08:09:29;;;;;;;2.97;1.00;;;11.50;99.90;;;;;;4165045;28;20267;-80
2024/03/16 08:11:33;;;;;;;2.50;1.50;;;11.60;99.90;;;;;;4162993;28;20226;-80
2024/03/16 08:13:38;;;;;;;5.63;2.13;;;11.60;99.90;;;;;;4164575;28;20214;-80
2024/03/16 08:15:40;;;;;;;4.23;1.67;;;11.70;99.90;;;;;;4173690;28;20232;-80
2024/03/16 08:17:42;;;;;;;6.63;1.70;;;11.70;99.90;;;;;;4180954;28;20257;-80
2024/03/16 08:19:44;;;;;;;2.40;1.37;;;11.70;99.90;;;;;;4175083;28;20202;-80
2024/03/16 08:21:48;;;;;;;4.43;1.73;;;11.80;99.90;;;;;;4162337;28;20223;-80
2024/03/16 08:23:50;;;;;;;6.27;1.93;;;11.80;99.90;;;;;;4161627;28;20250;-80
2024/03/16 08:25:52;;;;;;;3.27;1.50;;;11.90;99.90;;;;;;4181285;28;20206;-81
2024/03/16 08:27:54;;;;;;;3.80;2.00;;;12.10;99.90;;;;;;4163572;28;20315;-81
2024/03/16 08:29:56;;;;;;;2.57;1.80;;;12.10;99.90;;;;;;4156072;28;20276;-82
2024/03/16 08:31:58;;;;;;;3.40;1.60;;;12.20;99.90;;;;;;4159995;28;20213;-79
2024/03/16 08:34:00;;;;;;;3.50;1.63;;;12.30;99.90;;;;;;4162380;28;20211;-79
2024/03/16 08:36:05;;;;;;;4.90;1.87;;;12.40;99.90;;;;;;4147985;28;20218;-79
2024/03/16 08:38:10;;;;;;;3.10;1.60;;;12.50;99.90;;;;;;4163137;28;20272;-79
2024/03/16 08:40:11;;;;;;;5.30;1.77;;;12.70;99.90;;;;;;4161972;28;20207;-79
2024/03/16 08:42:14;;;;;;;1.93;1.60;;;12.80;99.90;;;;;;4158582;28;20241;-79
2024/03/16 08:44:19;;;;;;;4.03;1.50;;;12.90;99.90;;;;;;4140554;28;20210;-79
2024/03/16 08:46:21;;;;;;;5.20;1.70;;;13.00;99.90;;;;;;4191880;28;20208;-80
2024/03/16 08:48:23;;;;;;;4.00;1.40;;;13.10;99.90;;;;;;4159435;28;20232;-80
2024/03/16 08:50:25;;;;;;;2.70;1.60;;;13.20;99.90;;;;;;4159287;28;22220;-79
2024/03/16 08:52:27;;;;;;;3.90;1.33;;;13.20;99.90;;;;;;4163058;28;20215;-79
2024/03/16 08:54:29;;;;;;;2.30;1.40;;;13.30;99.90;;;;;;4182939;28;20207;-79
2024/03/16 08:56:31;;;;;;;5.83;1.60;;;13.40;99.90;;;;;;4164953;28;20825;-80
2024/03/16 08:58:33;;;;;;;3.47;1.37;;;13.40;99.90;;;;;;4176499;28;20241;-79
2024/03/16 09:00:35;;;;;;;2.37;1.20;;;13.50;99.90;;;;;;4162832;28;20298;-81
2024/03/16 09:02:37;;;;;;;2.33;1.17;;;13.50;99.90;;;;;;4175343;28;20936;-80
2024/03/16 09:04:40;;;;;;;3.60;1.20;;;13.50;99.90;;;;;;4162476;28;20213;-80
2024/03/16 09:06:42;;;;;;;2.73;1.03;;;13.60;99.90;;;;;;4175522;28;20747;-79
2024/03/16 09:08:44;;;;;;;3.00;1.40;;;13.50;99.90;;;;;;4154422;28;20242;-79
2024/03/16 09:10:46;;;;;;;3.50;1.50;;;13.50;99.90;;;;;;4172157;28;20663;-80
2024/03/16 09:12:47;;;;;;;3.33;1.60;;;13.50;99.90;;;;;;4179632;28;20917;-79
2024/03/16 09:14:49;;;;;;;5.00;1.60;;;13.40;99.90;;;;;;4178340;28;20289;-79
2024/03/16 09:16:51;;;;;;;1.90;1.10;;;13.40;99.90;;;;;;4157241;28;20559;-79
2024/03/16 09:18:54;;;;;;;3.80;1.73;;;13.50;99.90;;;;;;4156622;28;20227;-79
2024/03/16 09:20:56;;;;;;;5.63;1.73;;;13.50;99.90;;;;;;4159570;28;20261;-79
2024/03/16 09:22:59;;;;;;;5.03;1.60;;;13.50;99.90;;;;;;4170703;28;20201;-79
2024/03/16 09:25:01;;;;;;;3.57;1.60;;;13.60;99.90;;;;;;4175083;28;20475;-79
2024/03/16 09:27:06;;;;;;;4.33;1.50;;;13.60;99.90;;;;;;4159511;28;20226;-81
2024/03/16 09:29:13;;;;;;;5.00;1.83;;;13.60;99.90;;;;;;4163687;28;20214;-80
2024/03/16 09:31:15;;;;;;;3.80;1.87;;;13.70;99.90;;;;;;4164522;28;20313;-80
2024/03/16 09:33:16;;;;;;;2.13;1.60;;;13.60;99.90;;;;;;4180157;28;20252;-80
2024/03/16 09:35:18;;;;;;;6.20;1.73;;;13.60;99.90;;;;;;4164999;28;20302;-80
2024/03/16 09:37:20;;;;;;;5.13;2.07;;;13.60;99.90;;;;;;4170981;28;20256;-81
2024/03/16 09:39:26;;;;;;;3.93;2.00;;;13.70;99.90;;;;;;4179278;28;20215;-82
2024/03/16 09:41:29;;;;;;;2.93;1.80;;;13.70;99.90;;;;;;4169570;28;20214;-82
2024/03/16 09:43:33;;;;;;;4.53;1.93;;;13.80;99.90;;;;;;4162000;28;20223;-82
2024/03/16 09:45:35;;;;;;;4.43;1.90;;;13.80;99.90;;;;;;4166988;28;20235;-82
2024/03/16 09:47:37;;;;;;;4.97;2.10;;;13.90;99.90;;;;;;4179266;28;20644;-82
2024/03/16 09:49:38;;;;;;;4.90;2.03;;;14.00;99.90;;;;;;4170996;28;20203;-82
2024/03/16 09:51:40;;;;;;;3.80;1.70;;;14.00;99.90;;;;;;4183294;28;20553;-84
2024/03/16 09:53:43;;;;;;;2.47;1.70;;;14.00;99.90;;;;;;4185166;28;20226;-80
2024/03/16 09:55:45;;;;;;;2.80;1.60;;;14.00;99.90;;;;;;4191059;28;20616;-81
2024/03/16 09:57:51;;;;;;;2.20;1.67;;;14.00;99.90;;;;;;4170226;28;20216;-82
2024/03/16 10:00:31;;;;;;;3.50;2.10;;;14.00;99.90;;;;;;4183626;28;20201;-81
2024/03/16 10:02:39;;;;;;;4.13;1.80;;;13.90;99.90;;;;;;4117826;28;20210;-81
2024/03/16 10:04:41;;;;;;;6.43;2.03;;;13.90;99.90;;;;;;4181204;28;20767;-79
2024/03/16 10:06:43;;;;;;;3.03;1.57;;;13.90;99.90;;;;;;4176917;28;20588;-80
2024/03/16 10:08:45;;;;;;;3.63;1.50;;;14.00;99.90;;;;;;4190510;28;20222;-79
2024/03/16 10:10:46;;;;;;;1.87;1.50;;;14.00;99.90;;;;;;4160702;28;20257;-80
2024/03/16 10:12:51;;;;;;;3.40;1.40;;;14.00;99.90;;;;;;4166715;28;20246;-82
2024/03/16 10:15:08;;;;;;;4.37;1.60;;;14.10;99.90;;;;;;4192230;28;20233;-80
2024/03/16 10:17:11;;;;;;;2.87;1.70;;;14.10;99.90;;;;;;4167522;28;20255;-81
2024/03/16 10:19:13;;;;;;;2.80;1.40;;;14.10;99.90;;;;;;4182972;28;20707;-83
2024/03/16 10:21:17;;;;;;;6.40;1.60;;;14.10;99.90;;;;;;4199914;28;20274;-80
2024/03/16 10:23:20;;;;;;;2.57;1.40;;;14.10;99.90;;;;;;4160804;28;20234;-83
2024/03/16 10:25:24;;;;;;;3.27;1.23;;;14.10;99.90;;;;;;4159916;28;20300;-79
2024/03/16 10:27:26;;;;;;;1.83;1.20;;;14.10;99.90;;;;;;4162370;28;20226;-80
2024/03/16 10:29:28;;;;;;;2.73;1.20;;;14.00;99.90;;;;;;4157825;28;20551;-79
2024/03/16 10:31:30;;;;;;;4.60;1.47;;;14.00;99.90;;;;;;4168436;28;20215;-79
2024/03/16 10:33:38;;;;;;;4.70;1.67;;;14.00;99.90;;;;;;4161578;28;20826;-79
2024/03/16 10:35:40;;;;;;;1.87;1.37;;;14.00;99.90;;;;;;4167210;28;20250;-82
2024/03/16 10:37:42;;;;;;;4.87;1.50;;;14.10;99.90;;;;;;4161805;28;20227;-82
2024/03/16 10:39:46;;;;;;;3.90;1.20;;;14.10;99.90;;;;;;4170113;28;20195;-81